Time;durP1;ratioP1;P1;durP2;ratioP2;P2;SDS_P1;SDS_P2;PMS_P1;PMS_P2;Temp;Humidity;BMP_temperature;BMP_pressure;BME280_temperature;BME280_humidity;BME280_pressure;Samples;Min_cycle;Max_cycle;Signal;HPM_P1;HPM_P2
2022/12/07 00:02:27;;;;;;;12.75;4.10;;;;;;;-5.23;63.35;99832.06;4919996;28;20047;-59
2022/12/07 00:05:15;;;;;;;6.68;3.33;;;;;;;-5.06;64.41;99836.94;4922384;28;20040;-60
2022/12/07 00:08:04;;;;;;;7.90;3.53;;;;;;;-4.73;63.68;99833.97;4902811;28;20213;-60
2022/12/07 00:10:53;;;;;;;8.52;3.78;;;;;;;-4.71;62.92;99847.63;4897029;28;20136;-60
2022/12/07 00:13:48;;;;;;;8.85;3.08;;;;;;;-4.80;63.08;99833.72;4931692;28;20048;-60
2022/12/07 00:19:37;;;;;;;7.95;4.03;;;;;;;-4.62;62.78;99847.97;4968132;28;20059;-60
2022/12/07 00:22:26;;;;;;;7.38;3.22;;;;;;;-4.66;62.26;99833.38;4919529;28;20090;-60
2022/12/07 00:25:20;;;;;;;9.55;3.70;;;;;;;-4.78;62.10;99837.19;4907428;28;20045;-60
2022/12/07 00:28:16;;;;;;;;;;;;;;;;;;;;;
2022/12/07 00:31:34;;;;;;;8.70;4.00;;;;;;;-4.70;61.87;99844.25;4924443;28;20310;-60
2022/12/07 00:34:26;;;;;;;7.68;3.20;;;;;;;-4.68;61.45;99843.50;4911506;28;20340;-60
2022/12/07 00:37:20;;;;;;;7.95;3.80;;;;;;;-4.66;61.81;99851.22;4931084;28;20040;-60
2022/12/07 00:42:46;;;;;;;6.35;3.58;;;;;;;-4.73;61.43;99849.25;4905132;28;20246;-60
2022/12/07 00:45:27;;;;;;;10.63;2.92;;;;;;;-4.66;61.33;99846.13;4918806;28;20047;-60
2022/12/07 00:48:19;;;;;;;9.23;4.28;;;;;;;-4.36;61.96;99867.66;4886364;28;20084;-61
2022/12/07 00:51:05;;;;;;;8.15;3.40;;;;;;;-4.22;61.17;99844.31;4911276;28;20043;-60
2022/12/07 00:53:52;;;;;;;7.60;3.60;;;;;;;-4.23;61.31;99834.94;4914229;28;20058;-59
2022/12/07 00:56:34;;;;;;;8.82;4.03;;;;;;;-4.51;59.82;99805.03;4941547;28;20091;-60
2022/12/07 00:59:23;;;;;;;11.70;4.57;;;;;;;-4.30;59.67;99825.34;4869332;28;20063;-60
2022/12/07 01:02:02;;;;;;;14.18;4.85;;;;;;;-4.11;59.89;99837.94;4913743;28;20052;-60
2022/12/07 01:05:07;;;;;;;11.25;4.45;;;;;;;-4.00;60.03;99840.88;4932034;28;20038;-60
2022/12/07 01:07:47;;;;;;;11.48;4.50;;;;;;;-3.93;60.15;99838.56;4836111;28;20055;-60
2022/12/07 01:13:31;;;;;;;16.73;5.68;;;;;;;-3.81;59.56;99832.19;4854050;28;20100;-62
2022/12/07 01:16:20;;;;;;;6.20;3.53;;;;;;;-3.87;59.59;99829.38;4885762;28;20040;-61
2022/12/07 01:19:06;;;;;;;10.55;3.65;;;;;;;-4.06;59.41;99775.19;4909852;28;20042;-60
2022/12/07 01:22:04;;;;;;;8.20;4.45;;;;;;;-3.64;58.44;99831.06;4889187;28;20064;-60
2022/12/07 01:24:39;;;;;;;10.45;4.03;;;;;;;-3.56;58.95;99824.50;4926749;28;20045;-60
2022/12/07 01:27:24;;;;;;;8.50;3.33;;;;;;;-3.35;58.13;99832.00;4900542;28;20049;-60
2022/12/07 01:30:02;;;;;;;9.95;3.33;;;;;;;-3.25;58.71;99825.50;4920312;28;20063;-60
2022/12/07 01:32:43;;;;;;;9.15;3.55;;;;;;;-3.14;58.11;99819.06;4868329;28;20037;-61
2022/12/07 01:35:30;;;;;;;7.78;4.30;;;;;;;-2.95;58.00;99814.50;4888393;28;20117;-61
2022/12/07 01:38:39;;;;;;;12.88;7.35;;;;;;;-2.66;58.65;99808.56;4911539;28;20113;-59
2022/12/07 01:41:29;;;;;;;11.38;5.25;;;;;;;-2.69;58.02;99808.50;4904542;28;20051;-61
2022/12/07 01:44:29;;;;;;;14.02;5.10;;;;;;;-2.62;58.01;99805.28;4899997;28;20171;-59
2022/12/07 01:47:19;;;;;;;13.27;6.07;;;;;;;-2.86;58.08;99779.84;4911298;28;20261;-60
2022/12/07 01:53:01;;;;;;;13.98;5.60;;;;;;;-2.93;59.56;99817.97;4898539;28;20037;-60
2022/12/07 01:58:47;;;;;;;13.82;6.65;;;;;;;-3.14;60.16;99811.38;4893433;28;20052;-59
2022/12/07 02:01:25;;;;;;;11.32;5.05;;;;;;;-3.31;61.33;99825.31;4882048;28;20052;-59
2022/12/07 02:04:17;;;;;;;16.63;7.65;;;;;;;-3.75;62.00;99768.53;4910787;28;20054;-59
2022/12/07 02:07:05;;;;;;;19.85;6.70;;;;;;;-3.36;63.03;99827.72;4936095;28;20044;-59
2022/12/07 02:09:50;;;;;;;22.27;7.82;;;;;;;-3.26;63.86;99826.34;4891980;28;20045;-59
2022/12/07 02:12:24;;;;;;;11.95;5.47;;;;;;;-3.51;63.89;99828.09;4854220;28;20064;-59
2022/12/07 02:15:15;;;;;;;10.20;4.97;;;;;;;-3.78;64.98;99829.72;4865320;28;20087;-59
2022/12/07 02:18:06;;;;;;;10.57;4.65;;;;;;;-3.79;66.07;99840.75;4927148;28;20116;-60
2022/12/07 02:20:49;;;;;;;10.80;5.68;;;;;;;-3.82;66.22;99836.41;4897476;28;20049;-60
2022/12/07 02:24:17;;;;;;;11.45;4.53;;;;;;;-3.84;66.70;99837.16;4906339;28;20032;-58
2022/12/07 02:27:48;;;;;;;11.52;4.60;;;;;;;-3.68;66.92;99824.09;4889144;28;20051;-60
2022/12/07 02:30:40;;;;;;;9.23;4.50;;;;;;;-3.74;67.24;99799.25;4892878;28;20039;-60
2022/12/07 02:33:31;;;;;;;10.55;5.03;;;;;;;-3.38;67.56;99823.38;4917642;28;20098;-60
2022/12/07 02:36:21;;;;;;;9.23;4.30;;;;;;;-3.25;67.58;99799.94;4861723;28;20080;-60
2022/12/07 02:39:04;;;;;;;10.38;4.40;;;;;;;-3.26;67.50;99803.34;4922215;28;20126;-60
2022/12/07 02:41:54;;;;;;;10.38;4.22;;;;;;;-3.24;67.33;99801.69;4907892;28;20111;-61
2022/12/07 02:44:49;;;;;;;11.88;4.95;;;;;;;-3.28;67.34;99799.84;4878070;28;20071;-61
2022/12/07 02:47:48;;;;;;;8.95;4.70;;;;;;;-3.20;68.08;99798.41;4894463;28;20051;-59
2022/12/07 02:50:55;;;;;;;11.60;4.85;;;;;;;-3.14;68.22;99793.50;4912738;28;20126;-60
2022/12/07 02:53:44;;;;;;;12.60;4.97;;;;;;;-3.11;67.72;99788.47;4914184;28;20044;-60
2022/12/07 02:56:37;;;;;;;11.48;5.05;;;;;;;-3.06;67.55;99786.94;4899337;28;20044;-59
2022/12/07 02:59:33;;;;;;;8.05;4.47;;;;;;;-2.96;67.10;99787.22;4914064;28;20041;-60
2022/12/07 03:05:50;;;;;;;20.30;7.82;;;;;;;-3.08;66.20;99773.22;4921237;28;20075;-59
2022/12/07 03:08:39;;;;;;;19.15;9.13;;;;;;;-3.60;65.77;99694.97;4865874;28;20038;-59
2022/12/07 03:11:54;;;;;;;10.77;4.32;;;;;;;-3.11;64.96;99767.16;4920967;28;20265;-59
2022/12/07 03:17:48;;;;;;;10.70;5.63;;;;;;;-3.29;65.21;99763.22;4903798;28;20294;-59
2022/12/07 03:21:14;;;;;;;7.97;4.38;;;;;;;-3.01;65.20;99764.06;4902107;28;20107;-60
2022/12/07 03:23:52;;;;;;;5.60;3.67;;;;;;;-2.73;63.91;99765.75;4910491;28;20047;-59
2022/12/07 03:26:41;;;;;;;9.18;3.70;;;;;;;-2.73;64.13;99760.63;4909013;28;20052;-60
2022/12/07 03:29:27;;;;;;;7.40;3.42;;;;;;;-3.51;64.27;99621.22;4922343;28;20040;-59
2022/12/07 03:32:31;;;;;;;6.00;2.92;;;;;;;-2.57;64.36;99756.84;4918169;28;20602;-60
2022/12/07 03:35:27;;;;;;;7.13;3.05;;;;;;;-2.50;63.40;99762.97;4902406;28;20044;-59
2022/12/07 03:41:24;;;;;;;7.43;3.50;;;;;;;-2.51;62.38;99756.13;4883771;28;20080;-61
2022/12/07 03:44:17;;;;;;;9.93;4.10;;;;;;;-2.62;62.54;99761.81;4918548;28;20048;-61
2022/12/07 03:47:27;;;;;;;10.32;5.43;;;;;;;-2.89;62.86;99748.22;4892899;28;20410;-63
2022/12/07 03:50:13;;;;;;;11.35;3.88;;;;;;;-3.04;63.24;99762.28;4927622;28;20049;-61
2022/12/07 03:58:50;;;;;;;7.68;3.78;;;;;;;-3.51;64.28;99755.72;4925201;28;20821;-60
2022/12/07 04:01:33;;;;;;;9.40;4.75;;;;;;;-3.49;64.78;99760.06;4928619;28;20156;-60
2022/12/07 04:04:14;;;;;;;8.77;4.38;;;;;;;-3.43;64.66;99763.63;4921884;28;20089;-61
2022/12/07 04:07:02;;;;;;;8.50;4.60;;;;;;;-3.45;65.08;99755.03;4911606;28;20060;-62
2022/12/07 04:09:49;;;;;;;5.18;2.95;;;;;;;-3.53;63.99;99763.31;4928931;28;20098;-64
2022/12/07 04:15:38;;;;;;;10.45;4.70;;;;;;;-3.35;63.56;99762.16;4911623;28;20050;-63
2022/12/07 04:18:22;;;;;;;6.40;3.38;;;;;;;-3.19;63.10;99764.38;4914196;28;20048;-64
2022/12/07 04:24:00;;;;;;;9.43;3.55;;;;;;;-2.67;62.89;99771.03;4923181;28;20068;-61
2022/12/07 04:26:49;;;;;;;;;;;;;;;-2.78;62.35;99772.41;4926716;28;20068;-61
2022/12/07 04:32:23;;;;;;;12.15;4.43;;;;;;;-3.07;62.45;99785.22;4931039;28;20050;-61
2022/12/07 04:35:40;;;;;;;10.75;4.85;;;;;;;-3.13;63.32;99790.13;4926442;28;20055;-62
2022/12/07 04:38:23;;;;;;;7.18;3.67;;;;;;;-3.30;63.34;99791.28;4961091;28;20049;-64
2022/12/07 04:41:08;;;;;;;9.35;3.90;;;;;;;-3.30;64.11;99796.38;4858325;28;20053;-61
2022/12/07 04:44:02;;;;;;;11.27;4.20;;;;;;;-3.30;64.74;99806.59;4909519;28;20043;-61
2022/12/07 04:46:52;;;;;;;8.40;3.70;;;;;;;-3.48;65.18;99800.09;4911499;28;20052;-62
2022/12/07 04:49:34;;;;;;;9.30;3.90;;;;;;;-3.68;65.24;99803.69;4932997;28;20075;-63
2022/12/07 04:52:22;;;;;;;8.93;3.92;;;;;;;-3.80;65.73;99798.16;4946915;28;20107;-62
2022/12/07 04:58:28;;;;;;;7.75;3.80;;;;;;;-4.01;65.64;99809.38;4923138;28;20301;-61
2022/12/07 05:04:29;;;;;;;11.30;3.70;;;;;;;-4.18;65.68;99764.53;4903311;28;20052;-62
2022/12/07 05:07:08;;;;;;;10.68;3.90;;;;;;;-4.06;65.94;99807.50;4928504;28;20263;-61
2022/12/07 05:09:44;;;;;;;9.45;3.47;;;;;;;-4.04;65.95;99799.06;4878592;28;20064;-62
2022/12/07 05:12:33;;;;;;;8.60;4.32;;;;;;;-4.09;65.96;99805.69;4929100;28;20048;-63
2022/12/07 05:15:09;;;;;;;6.75;3.33;;;;;;;-4.19;65.72;99798.53;4959880;28;20047;-61
2022/12/07 05:17:46;;;;;;;11.23;3.72;;;;;;;-4.05;66.16;99807.53;4942392;28;20036;-62
2022/12/07 05:20:41;;;;;;;9.10;4.40;;;;;;;-3.96;65.86;99823.16;4910443;28;20059;-62
2022/12/07 05:23:28;;;;;;;9.00;4.32;;;;;;;-4.09;65.76;99808.25;4925161;28;20058;-62
2022/12/07 05:26:29;;;;;;;9.07;3.80;;;;;;;-4.07;65.95;99819.34;4911774;28;20044;-61
2022/12/07 05:29:08;;;;;;;9.48;4.05;;;;;;;-4.16;65.14;99824.16;4899282;28;20346;-61
2022/12/07 05:31:53;;;;;;;11.05;3.47;;;;;;;-4.20;64.58;99832.50;4913396;28;20105;-61
2022/12/07 05:34:44;;;;;;;9.13;3.88;;;;;;;-4.20;64.58;99832.50;4910582;28;20068;-62
2022/12/07 05:37:43;;;;;;;7.20;4.25;;;;;;;-4.14;64.64;99837.84;4907768;28;20044;-61
2022/12/07 05:43:40;;;;;;;14.23;6.38;;;;;;;-4.12;64.32;99837.09;4905010;28;20344;-62
2022/12/07 05:46:23;;;;;;;11.27;5.65;;;;;;;-4.15;64.27;99838.63;4893127;28;20040;-62
2022/12/07 05:49:03;;;;;;;8.63;3.33;;;;;;;-4.82;63.55;99748.69;4889979;28;20056;-61
2022/12/07 05:51:38;;;;;;;7.38;3.88;;;;;;;-4.34;63.13;99849.88;4934701;28;20064;-61
2022/12/07 05:54:21;;;;;;;11.55;3.60;;;;;;;-4.30;63.68;99861.03;4904947;28;20045;-61
2022/12/07 05:57:09;;;;;;;11.02;4.07;;;;;;;-4.29;64.08;99857.66;4916702;28;20045;-61
2022/12/07 06:00:16;;;;;;;6.30;3.35;;;;;;;-4.34;64.56;99839.69;4898116;28;20049;-61
2022/12/07 06:03:14;;;;;;;8.65;4.15;;;;;;;-4.40;64.46;99855.59;4925972;28;20074;-61
2022/12/07 06:06:02;;;;;;;12.75;3.95;;;;;;;-4.61;65.59;99842.06;4918977;28;20290;-61
2022/12/07 06:08:45;;;;;;;8.90;4.10;;;;;;;-4.72;64.95;99861.16;4882230;28;20040;-61
2022/12/07 06:14:43;;;;;;;8.98;3.95;;;;;;;-5.22;65.35;99858.38;4904378;28;20333;-61
2022/12/07 06:17:22;;;;;;;6.22;3.17;;;;;;;-5.24;66.02;99875.31;4920228;28;20057;-61
2022/12/07 06:20:17;;;;;;;10.35;4.20;;;;;;;-5.42;66.76;99845.75;4919808;28;20301;-61
2022/12/07 06:22:58;;;;;;;6.68;4.00;;;;;;;-5.33;66.89;99870.69;4920231;28;20044;-62
2022/12/07 06:25:45;;;;;;;7.68;4.00;;;;;;;-5.46;67.13;99858.28;4939571;28;20048;-61
2022/12/07 06:28:30;;;;;;;12.45;4.75;;;;;;;-5.54;66.90;99874.88;4915263;28;20212;-60
2022/12/07 06:31:10;;;;;;;10.43;4.10;;;;;;;-5.61;67.59;99888.19;4937744;28;20049;-61
2022/12/07 06:34:03;;;;;;;16.60;4.45;;;;;;;-5.82;67.29;99886.44;4939968;28;20310;-62
2022/12/07 06:36:39;;;;;;;9.95;4.68;;;;;;;-5.93;68.50;99874.97;4928774;28;20053;-61
2022/12/07 06:39:42;;;;;;;9.77;5.25;;;;;;;-6.91;68.62;99715.63;4927161;28;20036;-61
2022/12/07 06:42:18;;;;;;;13.55;6.25;;;;;;;-6.05;68.56;99889.72;4901315;28;20460;-61
2022/12/07 06:45:07;;;;;;;13.10;5.38;;;;;;;-6.04;69.38;99896.53;4928844;28;20055;-61
2022/12/07 06:48:03;;;;;;;13.15;5.60;;;;;;;-6.15;69.33;99899.47;4891865;28;20048;-61
2022/12/07 06:50:56;;;;;;;10.73;4.60;;;;;;;-6.28;69.89;99907.38;4898239;28;20057;-61
2022/12/07 06:53:58;;;;;;;9.95;4.88;;;;;;;-6.44;70.04;99899.84;4880084;28;20250;-61
2022/12/07 06:56:45;;;;;;;11.57;5.30;;;;;;;-6.61;70.01;99922.81;4931459;28;20058;-61
2022/12/07 06:59:39;;;;;;;10.98;4.90;;;;;;;-6.75;70.49;99923.84;4877289;28;20048;-60
2022/12/07 07:02:21;;;;;;;10.23;5.10;;;;;;;-6.91;70.66;99921.34;4929943;28;20044;-60
2022/12/07 07:05:02;;;;;;;9.20;4.43;;;;;;;-7.06;70.99;99922.38;4924301;28;20313;-60
2022/12/07 07:07:55;;;;;;;9.07;3.90;;;;;;;-7.41;71.18;99908.84;4906995;28;20049;-59
2022/12/07 07:11:03;;;;;;;16.17;8.25;;;;;;;-7.19;72.61;99930.19;4868842;28;20056;-60
2022/12/07 07:13:42;;;;;;;24.10;10.43;;;;;;;-7.66;71.53;99926.16;4866034;28;20052;-61
2022/12/07 07:16:23;;;;;;;24.77;11.25;;;;;;;-7.89;72.12;99930.91;4845157;28;20120;-61
2022/12/07 07:22:38;;;;;;;84.55;25.30;;;;;;;-9.09;73.11;99798.75;4907123;28;20045;-61
2022/12/07 07:25:17;;;;;;;107.38;34.40;;;;;;;-8.22;73.53;99962.13;4925035;28;20322;-61
2022/12/07 07:27:56;;;;;;;117.43;39.28;;;;;;;-8.34;73.60;99963.19;4887303;28;20052;-61
2022/12/07 07:30:40;;;;;;;80.60;30.15;;;;;;;-8.50;74.03;99950.53;4916059;28;20393;-61
2022/12/07 07:33:19;;;;;;;59.17;22.63;;;;;;;-8.47;74.14;99970.97;4920076;28;20060;-60
2022/12/07 07:35:57;;;;;;;27.27;13.23;;;;;;;-8.32;75.19;99976.81;4944394;28;20079;-61
2022/12/07 07:38:41;;;;;;;18.33;9.02;;;;;;;-8.38;75.12;99971.44;4923306;28;20086;-60
2022/12/07 07:41:28;;;;;;;22.50;9.52;;;;;;;-8.48;75.00;99984.44;4890159;28;20374;-60
2022/12/07 07:47:32;;;;;;;30.77;14.88;;;;;;;-9.13;75.00;99978.28;4926464;28;20052;-61
2022/12/07 07:50:25;;;;;;;21.48;8.98;;;;;;;-9.16;75.80;100000.91;4864701;28;20048;-60
2022/12/07 07:53:16;;;;;;;22.17;11.13;;;;;;;-9.17;76.75;99996.59;4929726;28;20048;-60
2022/12/07 07:56:09;;;;;;;36.20;17.60;;;;;;;-9.07;76.96;100003.06;4917677;28;20057;-60
2022/12/07 07:59:01;;;;;;;39.13;23.27;;;;;;;-9.39;76.56;99943.88;4883289;28;20052;-60
2022/12/07 08:01:56;;;;;;;25.15;14.98;;;;;;;-9.16;76.95;100000.91;4913235;28;20173;-60
2022/12/07 08:04:52;;;;;;;13.82;8.27;;;;;;;-9.21;77.10;100017.47;4854362;28;20100;-60
2022/12/07 08:07:36;;;;;;;36.00;15.82;;;;;;;-9.36;77.03;100014.03;4925671;28;20036;-60
2022/12/07 08:10:27;;;;;;;20.88;9.23;;;;;;;-9.48;77.44;100005.72;4848894;28;20057;-61
2022/12/07 08:13:20;;;;;;;9.48;5.32;;;;;;;-9.55;77.93;100010.44;4881102;28;20047;-59
2022/12/07 08:16:12;;;;;;;10.35;4.95;;;;;;;-9.62;78.24;100002.38;4918258;28;20071;-60
2022/12/07 08:18:51;;;;;;;28.23;14.45;;;;;;;-9.56;78.54;100008.69;4904866;28;20063;-59
2022/12/07 08:21:43;;;;;;;30.77;14.43;;;;;;;-9.60;78.38;100005.88;4919162;28;20056;-60
2022/12/07 08:24:19;;;;;;;17.23;8.48;;;;;;;-9.58;79.21;99999.28;4885745;28;20036;-60
2022/12/07 08:27:03;;;;;;;12.60;6.75;;;;;;;-9.42;78.68;100026.34;4932929;28;20127;-60
2022/12/07 08:29:55;;;;;;;10.60;6.30;;;;;;;-9.54;78.15;100031.53;4870654;28;20380;-58
2022/12/07 08:32:33;;;;;;;9.10;5.15;;;;;;;-9.65;78.14;100019.91;4883301;28;20045;-59
2022/12/07 08:35:33;;;;;;;8.60;4.55;;;;;;;-9.68;78.15;100033.25;4890436;28;20075;-59
2022/12/07 08:41:57;;;;;;;7.32;4.25;;;;;;;-9.49;78.54;100034.34;4918307;28;20110;-59
2022/12/07 08:44:48;;;;;;;9.63;5.07;;;;;;;-9.70;77.43;100024.69;4925103;28;20052;-59
2022/12/07 08:47:39;;;;;;;9.73;6.60;;;;;;;-9.96;77.65;100032.34;4894003;28;20224;-59
2022/12/07 08:50:26;;;;;;;10.73;7.35;;;;;;;-9.91;77.80;100044.47;4811753;28;20048;-59
2022/12/07 08:53:21;;;;;;;11.63;6.90;;;;;;;-9.96;77.82;100044.97;4884655;28;20075;-59
2022/12/07 08:56:08;;;;;;;7.78;4.65;;;;;;;-9.81;78.44;100053.50;4911927;28;20268;-59
2022/12/07 08:58:55;;;;;;;10.07;3.70;;;;;;;-9.96;78.92;100000.34;4916342;28;20052;-58
2022/12/07 09:05:23;;;;;;;13.85;5.90;;;;;;;-9.55;78.89;100040.78;4877383;28;20373;-60
2022/12/07 09:08:11;;;;;;;12.45;6.03;;;;;;;-9.50;78.75;100042.72;4896874;28;20058;-60
2022/12/07 09:10:47;;;;;;;9.40;5.47;;;;;;;-9.75;78.56;100005.84;4939793;28;20040;-59
2022/12/07 09:13:30;;;;;;;11.30;4.13;;;;;;;-9.70;78.87;100044.06;4893849;28;20058;-60
2022/12/07 09:19:08;;;;;;;6.97;3.88;;;;;;;-9.71;79.82;100047.34;4837142;28;20060;-59
2022/12/07 09:22:01;;;;;;;6.97;3.80;;;;;;;-9.70;80.32;100044.91;4824522;28;20054;-58
2022/12/07 09:27:31;;;;;;;5.95;3.67;;;;;;;-9.57;80.55;100047.41;4861757;28;20049;-59
2022/12/07 09:30:16;;;;;;;14.77;7.65;;;;;;;-9.36;81.22;100047.81;4814534;28;20061;-59
2022/12/07 09:38:51;;;;;;;14.85;9.40;;;;;;;-8.72;80.66;100065.00;4808623;28;20050;-60
2022/12/07 09:41:38;;;;;;;32.90;13.93;;;;;;;-8.66;80.40;100074.59;4829761;28;20215;-60
2022/12/07 09:44:32;;;;;;;47.03;20.42;;;;;;;-8.74;79.72;100062.34;4815997;28;20093;-60
2022/12/07 09:47:24;;;;;;;49.30;21.52;;;;;;;-8.70;79.64;100074.41;4834290;28;20050;-60
2022/12/07 09:50:10;;;;;;;34.35;14.10;;;;;;;-8.72;79.02;100083.59;4862190;28;20358;-60
2022/12/07 09:52:52;;;;;;;32.42;13.02;;;;;;;-8.77;78.77;100082.44;4848183;28;20054;-61
2022/12/07 09:55:48;;;;;;;31.88;12.75;;;;;;;-8.80;78.36;100082.28;4846971;28;20114;-60
2022/12/07 09:58:45;;;;;;;31.80;13.20;;;;;;;-8.81;78.42;100090.66;4880848;28;20072;-60
2022/12/07 10:01:23;;;;;;;30.10;12.50;;;;;;;-9.35;78.50;100003.16;4808865;28;20082;-60
2022/12/07 10:04:29;;;;;;;29.52;11.85;;;;;;;-8.75;78.39;100096.06;4803077;28;20049;-60
2022/12/07 10:07:16;;;;;;;31.88;12.32;;;;;;;-8.74;78.24;100102.88;4805771;28;20077;-58
2022/12/07 10:13:06;;;;;;;22.42;11.50;;;;;;;-8.82;77.71;100104.09;4864399;28;20055;-59
2022/12/07 10:16:06;;;;;;;25.85;10.25;;;;;;;-9.35;78.10;100009.06;4822324;28;20045;-59
2022/12/07 10:18:50;;;;;;;24.67;9.63;;;;;;;-8.69;78.10;100119.22;4835930;28;20046;-59
2022/12/07 10:22:28;;;;;;;22.90;7.70;;;;;;;-8.66;77.50;100116.00;4817602;28;20362;-60
2022/12/07 10:25:26;;;;;;;28.63;12.88;;;;;;;-9.01;76.58;100113.94;4860651;28;20056;-60
2022/12/07 10:28:22;;;;;;;25.77;10.38;;;;;;;-9.16;76.76;100114.78;4864765;28;20227;-60
2022/12/07 10:31:17;;;;;;;28.75;10.93;;;;;;;-9.30;76.96;100115.63;4805388;28;20046;-60
2022/12/07 10:36:56;;;;;;;23.60;9.18;;;;;;;-9.52;76.57;100125.22;4832105;28;20046;-59
2022/12/07 10:39:53;;;;;;;18.20;7.65;;;;;;;-9.51;76.82;100117.72;4845936;28;20060;-60
2022/12/07 10:42:43;;;;;;;17.67;7.60;;;;;;;-9.43;77.12;100123.25;4880719;28;20051;-59
2022/12/07 10:52:23;;;;;;;22.67;7.65;;;;;;;-9.36;77.13;100143.06;4888277;28;20052;-59
2022/12/07 10:58:35;;;;;;;22.20;9.02;;;;;;;-9.21;77.07;100153.25;4907034;28;20048;-59
2022/12/07 11:01:54;;;;;;;22.35;9.00;;;;;;;-9.25;77.08;100157.25;4886775;28;20048;-60
2022/12/07 11:04:41;;;;;;;16.23;7.38;;;;;;;-9.15;77.63;100151.09;4939615;28;20050;-60
2022/12/07 11:07:39;;;;;;;19.58;9.13;;;;;;;-8.88;78.45;100151.88;4925371;28;20056;-60
2022/12/07 11:10:30;;;;;;;;;;;;;;;-8.73;78.27;100165.44;4881472;28;20040;-60
2022/12/07 11:13:40;;;;;;;26.42;11.50;;;;;;;-8.80;77.98;100163.31;4960360;28;19995;-60
2022/12/07 11:16:57;;;;;;;34.47;13.85;;;;;;;-9.47;77.39;100047.97;4860726;28;20537;-60
2022/12/07 11:20:04;;;;;;;22.95;12.23;;;;;;;-8.81;77.60;100151.44;4874509;28;20074;-60
2022/12/07 11:28:51;;;;;;;29.42;13.30;;;;;;;-8.80;78.00;100158.25;4904357;28;20059;-60
2022/12/07 11:31:57;;;;;;;28.33;12.00;;;;;;;-8.81;77.88;100136.25;4873849;28;22418;-60
2022/12/07 11:35:16;;;;;;;28.65;11.05;;;;;;;-8.59;78.13;100152.69;4884474;28;20095;-60
2022/12/07 11:41:18;;;;;;;36.45;11.95;;;;;;;-9.04;77.78;100070.72;4858640;28;20037;-60
2022/12/07 11:44:35;;;;;;;30.27;12.35;;;;;;;-8.50;77.78;100163.34;4923718;28;20119;-61
2022/12/07 11:47:38;;;;;;;26.17;8.80;;;;;;;-9.25;77.44;100045.91;4899904;28;20046;-61
2022/12/07 11:50:28;;;;;;;24.65;10.75;;;;;;;-8.71;77.85;100137.63;4889063;28;20045;-60
2022/12/07 11:53:38;;;;;;;24.13;10.30;;;;;;;-8.63;77.75;100160.91;4922737;28;20078;-61
2022/12/07 11:59:52;;;;;;;18.95;7.93;;;;;;;-8.56;78.37;100152.84;4926813;28;20042;-60
2022/12/07 12:02:50;;;;;;;24.48;9.43;;;;;;;-8.56;78.34;100157.91;4893515;28;20166;-60
2022/12/07 12:08:45;;;;;;;20.95;8.82;;;;;;;-8.61;78.70;100169.44;4898502;28;20052;-60
2022/12/07 12:12:06;;;;;;;34.13;12.65;;;;;;;-8.61;78.67;100164.38;4882819;28;20044;-60
2022/12/07 12:15:29;;;;;;;31.98;11.35;;;;;;;-8.49;78.35;100173.56;4920655;28;21035;-60
2022/12/07 12:18:46;;;;;;;33.67;12.73;;;;;;;-8.51;78.20;100166.66;4901642;28;20098;-60
2022/12/07 12:21:49;;;;;;;35.25;13.20;;;;;;;-8.46;78.19;100172.91;4896971;28;20676;-61
2022/12/07 12:24:42;;;;;;;32.25;13.07;;;;;;;-8.42;77.39;100176.47;4917026;28;20514;-60
2022/12/07 12:30:42;;;;;;;32.55;12.48;;;;;;;-8.53;77.51;100163.19;4912544;28;20056;-60
2022/12/07 12:34:02;;;;;;;33.70;12.88;;;;;;;-8.55;77.47;100170.69;4942013;28;20086;-60
2022/12/07 12:37:00;;;;;;;34.88;12.88;;;;;;;-8.54;77.30;100186.75;4883441;28;20075;-60
2022/12/07 12:42:53;;;;;;;60.35;20.98;;;;;;;-8.55;77.40;100185.03;4912530;28;20042;-60
2022/12/07 12:52:58;;;;;;;79.47;33.00;;;;;;;-8.31;77.46;100180.44;4894186;28;20083;-60
2022/12/07 12:56:12;;;;;;;96.97;37.50;;;;;;;-8.44;77.14;100186.50;4940532;28;20053;-61
2022/12/07 12:58:56;;;;;;;87.93;36.88;;;;;;;-8.55;77.54;100174.88;4853687;28;20477;-60
2022/12/07 13:01:51;;;;;;;77.85;32.97;;;;;;;-8.46;77.52;100180.50;4835982;28;20051;-60
2022/12/07 13:04:42;;;;;;;74.45;29.38;;;;;;;-8.39;77.93;100174.94;4853440;28;20146;-61
2022/12/07 13:08:04;;;;;;;67.00;28.55;;;;;;;-8.23;77.89;100179.25;4856576;28;20038;-60
2022/12/07 13:11:36;;;;;;;77.95;31.80;;;;;;;-8.26;77.11;100184.16;4820748;28;20058;-60
2022/12/07 13:15:07;;;;;;;81.82;32.40;;;;;;;-8.29;76.75;100174.69;4843057;28;20061;-61
2022/12/07 13:21:59;;;;;;;111.38;39.70;;;;;;;-8.49;76.76;100154.97;4844582;28;20047;-60
2022/12/07 13:27:56;;;;;;;91.60;34.13;;;;;;;-8.48;77.00;100162.66;4813316;28;20053;-61
2022/12/07 13:30:35;;;;;;;78.40;31.23;;;;;;;-8.32;77.78;100179.56;4847437;28;20086;-60
2022/12/07 13:33:21;;;;;;;88.90;30.73;;;;;;;-8.30;77.96;100178.00;4839287;28;20369;-61
2022/12/07 13:36:54;;;;;;;85.30;30.35;;;;;;;-8.28;77.69;100171.38;4938755;28;20048;-62
2022/12/07 13:39:38;;;;;;;84.10;31.92;;;;;;;-8.26;77.57;100190.09;4920979;28;20101;-62
2022/12/07 13:45:50;;;;;;;83.95;30.17;;;;;;;-8.19;78.11;100170.13;4934138;28;20041;-61
2022/12/07 13:48:36;;;;;;;73.78;29.48;;;;;;;-8.16;77.78;100195.66;4927321;28;20044;-61
2022/12/07 13:51:37;;;;;;;79.22;31.27;;;;;;;-8.63;77.33;100130.50;4938930;28;20070;-61
2022/12/07 13:57:28;;;;;;;58.72;22.92;;;;;;;-8.74;77.72;100156.06;4868954;28;20094;-62
2022/12/07 14:00:15;;;;;;;66.78;27.30;;;;;;;-8.66;78.32;100165.78;4901002;28;20091;-62
2022/12/07 14:03:40;;;;;;;59.10;23.70;;;;;;;-8.61;78.73;100179.59;4859447;28;20289;-62
2022/12/07 14:06:53;;;;;;;67.82;23.95;;;;;;;-8.69;78.32;100172.41;4878240;28;20052;-61
2022/12/07 14:09:50;;;;;;;58.53;21.70;;;;;;;-8.62;78.52;100177.84;4920165;28;20510;-61
2022/12/07 14:12:44;;;;;;;56.65;22.45;;;;;;;-8.77;78.12;100143.22;4934378;28;20048;-61
2022/12/07 14:15:35;;;;;;;59.88;22.58;;;;;;;-8.64;78.08;100179.41;4961752;28;20087;-62
2022/12/07 14:21:48;;;;;;;50.67;22.08;;;;;;;-8.88;77.62;100178.81;4909244;28;20119;-62
2022/12/07 14:24:35;;;;;;;50.65;21.02;;;;;;;-9.00;77.81;100179.84;4830988;28;20367;-61
2022/12/07 14:27:30;;;;;;;61.42;23.48;;;;;;;-9.13;77.88;100178.25;4890433;28;20044;-61
2022/12/07 14:33:15;;;;;;;77.22;27.48;;;;;;;-9.41;77.92;100149.50;4904290;28;20102;-61
2022/12/07 14:42:17;;;;;;;95.50;35.78;;;;;;;-9.55;77.99;100174.84;4930715;28;20296;-61
2022/12/07 14:44:59;;;;;;;80.63;31.25;;;;;;;-9.47;78.43;100169.38;4935121;28;20048;-61
2022/12/07 14:48:04;;;;;;;75.07;28.20;;;;;;;-9.47;77.99;100174.44;4870974;28;20569;-62
2022/12/07 14:54:19;;;;;;;100.72;36.83;;;;;;;-10.10;77.26;100188.19;4901996;28;20447;-61
2022/12/07 14:57:03;;;;;;;108.40;36.53;;;;;;;-10.14;78.00;100182.03;4891686;28;20212;-61
2022/12/07 15:00:00;;;;;;;85.63;33.85;;;;;;;-10.03;78.74;100173.50;4856647;28;20051;-61
2022/12/07 15:02:46;;;;;;;75.55;28.42;;;;;;;-10.10;79.03;100168.84;4870801;28;20093;-61
2022/12/07 15:05:36;;;;;;;64.65;23.75;;;;;;;-10.37;79.35;100126.69;4929187;28;20052;-61
2022/12/07 15:08:20;;;;;;;62.42;22.50;;;;;;;-10.08;79.56;100174.88;4928376;28;20048;-62
2022/12/07 15:14:11;;;;;;;44.72;17.38;;;;;;;-10.29;78.68;100150.78;4877345;28;20090;-62
2022/12/07 15:16:58;;;;;;;48.35;19.70;;;;;;;-10.35;78.32;100165.53;4928990;28;20075;-62
2022/12/07 15:19:50;;;;;;;49.67;20.08;;;;;;;-10.43;78.44;100163.41;4937838;28;20108;-62
2022/12/07 15:22:38;;;;;;;46.40;18.13;;;;;;;-10.53;78.24;100166.09;4913215;28;20056;-61
2022/12/07 15:25:38;;;;;;;36.60;14.77;;;;;;;-10.75;77.97;100147.78;4855655;28;20060;-61
2022/12/07 15:28:18;;;;;;;26.92;11.68;;;;;;;-10.79;77.84;100146.69;4829061;28;20174;-61
2022/12/07 15:30:57;;;;;;;30.35;10.27;;;;;;;-10.76;78.01;100140.97;4826667;28;20051;-61
2022/12/07 15:33:58;;;;;;;20.85;8.98;;;;;;;-10.83;78.03;100138.81;4839939;28;20046;-61
2022/12/07 15:36:36;;;;;;;23.35;10.70;;;;;;;-11.18;77.80;100099.47;4838153;28;20059;-62
2022/12/07 15:39:25;;;;;;;21.13;9.80;;;;;;;-10.98;77.86;100148.75;4789185;29;20082;-61
2022/12/07 15:42:22;;;;;;;25.30;9.77;;;;;;;-10.77;78.48;100131.66;4731465;29;20063;-61
2022/12/07 15:45:04;;;;;;;24.50;10.38;;;;;;;-10.86;77.36;100140.38;4769230;29;20093;-61
2022/12/07 15:47:55;;;;;;;19.17;8.90;;;;;;;-10.96;76.96;100150.59;4752849;29;20221;-61
2022/12/07 15:51:03;;;;;;;28.02;11.60;;;;;;;-11.07;76.44;100138.94;4782143;28;20450;-62